Time;durP1;ratioP1;P1;durP2;ratioP2;P2;SDS_P1;SDS_P2;PMS_P1;PMS_P2;Temp;Humidity;BMP_temperature;BMP_pressure;BME280_temperature;BME280_humidity;BME280_pressure;Samples;Min_cycle;Max_cycle;Signal;HPM_P1;HPM_P2
2023/11/04 00:09:30;;;;;;;1.90;1.50;;;;;;;6.32;90.89;96289.23;435297;1250;99211;-41
2023/11/04 00:19:51;;;;;;;2.10;1.60;;;;;;;6.29;91.09;96299.32;435140;1254;111522;-40
2023/11/04 00:29:54;;;;;;;2.30;2.20;;;;;;;6.24;91.21;96316.00;435271;1252;107564;-39
2023/11/04 00:39:59;;;;;;;3.70;2.60;;;;;;;6.18;91.23;96316.97;435026;1255;533310;-40
2023/11/04 01:10:27;;;;;;;4.70;3.90;;;;;;;5.89;91.11;96350.05;435337;1251;111754;-39
2023/11/04 01:20:30;;;;;;;4.70;3.90;;;;;;;5.70;91.27;96347.52;435476;1257;107172;-39
2023/11/04 01:30:34;;;;;;;2.60;1.90;;;;;;;5.62;91.11;96346.42;435312;1255;99902;-41
2023/11/04 01:40:37;;;;;;;2.80;2.50;;;;;;;5.51;91.26;96355.77;435157;1251;108432;-40
2023/11/04 02:00:44;;;;;;;1.80;1.60;;;;;;;5.48;91.30;96381.95;435161;1263;111483;-41
2023/11/04 02:10:48;;;;;;;5.40;1.90;;;;;;;5.43;91.41;96383.36;436022;1251;108445;-37
2023/11/04 02:20:51;;;;;;;5.80;1.60;;;;;;;5.45;91.51;96388.26;435241;1254;99236;-40
2023/11/04 02:40:58;;;;;;;1.80;1.40;;;;;;;5.35;91.34;96421.41;435298;1251;98673;-41
2023/11/04 02:51:02;;;;;;;2.10;1.90;;;;;;;5.31;91.60;96435.80;435405;1254;112061;-39
2023/11/04 03:01:05;;;;;;;2.60;2.10;;;;;;;5.30;91.61;96448.21;435289;1254;107494;-39
2023/11/04 03:11:10;;;;;;;2.20;1.50;;;;;;;5.28;91.62;96450.98;435803;1254;99242;-40
2023/11/04 03:21:15;;;;;;;3.80;2.50;;;;;;;5.31;91.85;96462.41;435245;1254;108242;-40
2023/11/04 03:31:18;;;;;;;5.00;2.40;;;;;;;5.31;92.03;96477.40;435295;1249;99249;-39
2023/11/04 04:01:28;;;;;;;5.30;3.10;;;;;;;5.66;92.66;96522.17;435360;1254;99247;-39
2023/11/04 04:11:32;;;;;;;6.70;2.90;;;;;;;5.80;92.61;96536.34;435400;1249;108640;-39
2023/11/04 04:21:34;;;;;;;3.20;2.30;;;;;;;5.98;92.97;96545.33;435303;1254;99208;-40
2023/11/04 04:31:38;;;;;;;4.30;2.40;;;;;;;6.17;93.09;96548.66;435374;1251;112065;-41
2023/11/04 04:51:45;;;;;;;3.40;2.50;;;;;;;6.44;93.09;96563.48;435194;1254;99185;-40
2023/11/04 05:01:49;;;;;;;4.60;3.00;;;;;;;6.51;92.91;96575.29;435404;1253;108611;-40
2023/11/04 05:11:52;;;;;;;3.40;3.00;;;;;;;6.59;92.87;96591.73;435348;1254;99234;-39
2023/11/04 05:21:56;;;;;;;4.90;3.80;;;;;;;6.66;92.98;96603.76;435590;1249;110973;-41
2023/11/04 05:32:00;;;;;;;4.20;3.40;;;;;;;6.68;92.88;96613.90;435384;1254;107885;-40
2023/11/04 05:42:05;;;;;;;4.60;2.90;;;;;;;6.74;92.51;96622.81;435273;1254;99237;-44
2023/11/04 05:52:09;;;;;;;3.50;3.20;;;;;;;6.73;92.55;96626.75;435387;1254;108257;-40
2023/11/04 06:02:12;;;;;;;6.80;3.40;;;;;;;6.82;92.51;96643.39;435381;1249;98937;-39
2023/11/04 06:12:16;;;;;;;4.70;3.90;;;;;;;6.78;92.15;96670.37;435431;1255;112173;-39
2023/11/04 06:22:19;;;;;;;8.40;5.50;;;;;;;6.72;92.15;96681.85;435342;1254;108278;-40
2023/11/04 07:02:33;;;;;;;5.10;4.50;;;;;;;6.90;92.25;96679.38;435260;1254;111959;-39
2023/11/04 07:12:36;;;;;;;9.60;5.20;;;;;;;7.89;92.60;96695.33;435185;1249;108586;-40
2023/11/04 07:22:39;;;;;;;8.20;4.10;;;;;;;9.57;92.77;96684.26;435322;1254;99241;-41
2023/11/04 07:32:43;;;;;;;8.90;5.90;;;;;;;10.89;91.46;96674.71;435396;1249;107931;-41
2023/11/04 07:42:47;;;;;;;8.20;4.20;;;;;;;11.81;89.92;96662.73;435383;1250;99339;-41
2023/11/04 07:52:51;;;;;;;6.20;3.40;;;;;;;12.18;87.82;96657.33;435306;1250;111932;-40
2023/11/04 08:03:03;;;;;;;5.90;3.60;;;;;;;12.11;84.99;96660.92;435284;1254;108240;-41
2023/11/04 08:23:09;;;;;;;7.30;3.50;;;;;;;11.34;82.92;96657.16;435280;1256;108864;-40
2023/11/04 08:33:13;;;;;;;8.60;4.60;;;;;;;10.89;82.10;96663.02;435234;1254;99343;-40
2023/11/04 08:53:34;;;;;;;5.50;3.20;;;;;;;10.80;81.35;96675.54;435231;1254;109804;-40
2023/11/04 09:23:57;;;;;;;6.30;2.90;;;;;;;10.74;80.42;96684.42;435282;1250;99240;-40
2023/11/04 09:34:02;;;;;;;6.90;3.50;;;;;;;10.84;79.84;96684.98;435416;1250;111324;-40
2023/11/04 09:44:07;;;;;;;7.60;2.80;;;;;;;10.90;79.56;96685.13;435441;1254;108445;-41
2023/11/04 10:04:14;;;;;;;5.30;3.00;;;;;;;11.41;79.56;96662.96;435324;1254;107245;-41
2023/11/04 10:24:24;;;;;;;6.30;3.40;;;;;;;11.61;78.32;96647.23;435370;1254;112085;-41
2023/11/04 10:34:31;;;;;;;3.80;2.70;;;;;;;11.63;77.71;96635.23;435289;1253;109297;-40
2023/11/04 10:44:36;;;;;;;6.30;2.20;;;;;;;11.58;76.73;96628.50;435143;1254;99212;-40
2023/11/04 10:54:44;;;;;;;6.40;2.60;;;;;;;11.68;76.74;96619.33;435282;1250;108570;-41
2023/11/04 11:14:55;;;;;;;8.80;3.20;;;;;;;11.92;75.70;96615.00;435567;1254;111429;-41
2023/11/04 11:24:58;;;;;;;7.20;1.90;;;;;;;11.90;74.06;96613.50;435252;1254;107417;-41
2023/11/04 11:35:04;;;;;;;5.40;2.50;;;;;;;11.73;72.42;96603.59;435657;1253;97935;-41
2023/11/04 11:55:12;;;;;;;10.30;2.90;;;;;;;11.42;72.37;96593.41;435325;1249;98002;-41
2023/11/04 12:05:16;;;;;;;3.70;1.90;;;;;;;11.52;71.53;96589.58;435345;1250;111880;-40
2023/11/04 12:25:25;;;;;;;11.60;5.90;;;;;;;11.20;71.15;96569.02;435274;1254;98856;-39
2023/11/04 12:35:29;;;;;;;7.30;3.00;;;;;;;10.95;71.76;96559.17;435386;1253;108522;-41
2023/11/04 12:45:33;;;;;;;5.40;2.00;;;;;;;10.79;71.56;96551.63;435083;1250;420730;-40
2023/11/04 12:55:36;;;;;;;7.40;3.10;;;;;;;10.88;71.60;96545.88;435350;1250;112210;-41
2023/11/04 13:15:43;;;;;;;9.60;2.30;;;;;;;10.93;71.59;96541.59;435431;1250;99171;-43
2023/11/04 13:25:47;;;;;;;4.40;1.60;;;;;;;10.93;71.34;96529.68;435332;1250;108488;-40
2023/11/04 13:35:50;;;;;;;6.00;2.20;;;;;;;10.71;70.74;96521.15;435262;1250;99214;-40
2023/11/04 13:45:54;;;;;;;10.10;2.50;;;;;;;10.52;70.55;96522.89;435315;1256;111980;-40
2023/11/04 13:55:57;;;;;;;9.00;3.10;;;;;;;10.46;70.43;96509.23;435443;1254;106662;-40
2023/11/04 14:16:05;;;;;;;8.40;3.30;;;;;;;10.34;69.87;96502.83;435352;1250;107672;-40
2023/11/04 14:26:09;;;;;;;8.70;3.90;;;;;;;10.15;69.98;96511.54;435314;1254;98783;-40
2023/11/04 14:36:12;;;;;;;10.80;3.70;;;;;;;10.02;70.14;96505.22;435278;1256;112682;-40
2023/11/04 14:46:17;;;;;;;9.00;3.60;;;;;;;9.88;70.12;96497.52;435405;1253;109330;-40
2023/11/04 14:56:20;;;;;;;11.20;4.60;;;;;;;9.63;70.19;96485.67;435341;1250;99246;-39
2023/11/04 15:46:37;;;;;;;23.10;10.00;;;;;;;8.34;72.13;96472.02;435381;1250;99230;-40
2023/11/04 15:56:41;;;;;;;24.20;12.40;;;;;;;8.05;72.59;96477.81;435299;1254;108722;-40
2023/11/04 16:06:44;;;;;;;32.00;13.90;;;;;;;7.75;73.11;96465.85;435196;1250;99237;-40
2023/11/04 16:16:47;;;;;;;31.00;15.50;;;;;;;7.56;73.53;96459.02;435268;1255;111364;-40
2023/11/04 16:26:50;;;;;;;33.20;17.90;;;;;;;7.46;74.12;96429.81;435153;1250;110415;-41
2023/11/04 16:36:54;;;;;;;34.20;17.00;;;;;;;7.38;74.33;96423.45;435291;1254;98002;-41
2023/11/04 16:46:58;;;;;;;39.40;18.10;;;;;;;7.22;74.62;96411.04;435355;1255;108199;-42
2023/11/04 16:57:03;;;;;;;70.60;34.40;;;;;;;7.04;74.89;96397.45;435411;1256;97999;-40
2023/11/04 17:07:06;;;;;;;70.30;30.90;;;;;;;6.70;75.11;96387.36;435330;1253;111519;-41
2023/11/04 17:17:10;;;;;;;60.70;30.10;;;;;;;6.63;75.70;96373.70;435354;1255;107703;-41
2023/11/04 17:27:14;;;;;;;92.80;47.50;;;;;;;6.56;75.77;96368.73;435353;1255;99158;-41
2023/11/04 17:37:18;;;;;;;85.00;43.00;;;;;;;6.32;75.98;96365.16;435361;1253;108365;-41
2023/11/04 17:47:22;;;;;;;90.80;46.10;;;;;;;6.12;76.47;96349.91;435389;1254;98344;-41
2023/11/04 18:07:29;;;;;;;86.00;47.10;;;;;;;5.90;77.31;96315.02;435434;1250;108349;-41
2023/11/04 18:27:34;;;;;;;66.90;37.60;;;;;;;5.73;77.75;96285.41;435103;1255;108431;-41
2023/11/04 18:37:58;;;;;;;75.10;39.70;;;;;;;5.74;77.93;96274.72;435387;1251;99268;-43
2023/11/04 18:48:03;;;;;;;62.30;34.70;;;;;;;5.73;78.20;96269.31;435276;1254;110094;-41
2023/11/04 18:58:06;;;;;;;87.90;45.40;;;;;;;5.68;78.49;96272.31;435303;1263;108682;-41
2023/11/04 19:08:10;;;;;;;100.90;49.40;;;;;;;5.39;78.65;96268.50;435391;1250;98807;-41
2023/11/04 19:18:13;;;;;;;83.40;41.30;;;;;;;5.29;79.00;96280.98;435223;1252;107964;-41
2023/11/04 19:28:17;;;;;;;83.70;44.80;;;;;;;5.25;79.34;96273.52;435254;1260;99213;-41
2023/11/04 19:58:28;;;;;;;126.30;62.70;;;;;;;4.77;80.30;96248.20;435405;1259;98022;-40
2023/11/04 20:18:33;;;;;;;90.50;49.90;;;;;;;4.41;80.91;96220.58;435374;1253;99195;-41
2023/11/04 20:28:39;;;;;;;97.50;54.10;;;;;;;4.37;81.10;96198.31;435465;1256;112118;-41
2023/11/04 20:38:42;;;;;;;85.20;44.10;;;;;;;4.35;81.33;96173.18;435301;1254;107659;-40
2023/11/04 20:48:45;;;;;;;78.30;41.80;;;;;;;4.38;81.63;96158.34;435127;1263;99243;-40
2023/11/04 20:58:49;;;;;;;81.40;43.80;;;;;;;4.35;82.29;96143.41;435412;1253;108482;-40
2023/11/04 21:08:53;;;;;;;62.30;33.20;;;;;;;4.22;82.45;96132.99;435205;1255;99218;-40
2023/11/04 21:18:56;;;;;;;60.90;31.20;;;;;;;4.19;82.62;96114.05;435297;1251;110356;-39
2023/11/04 21:49:06;;;;;;;57.50;33.30;;;;;;;4.14;83.07;96143.71;435318;1253;107275;-41
2023/11/04 21:59:10;;;;;;;76.90;41.10;;;;;;;4.00;83.25;96155.77;435394;1262;99138;-40
2023/11/04 22:09:13;;;;;;;81.90;46.50;;;;;;;3.84;83.35;96129.60;435314;1249;111101;-41
2023/11/04 22:19:16;;;;;;;76.70;37.80;;;;;;;3.75;83.23;96100.44;435041;1253;99227;-41
2023/11/04 22:29:19;;;;;;;64.50;36.60;;;;;;;3.78;83.40;96097.48;435247;1255;99219;-40
2023/11/04 22:39:23;;;;;;;61.30;32.60;;;;;;;3.88;83.74;96085.66;435319;1254;111566;-40
2023/11/04 22:49:26;;;;;;;61.20;33.10;;;;;;;3.94;83.85;96063.13;435253;1254;108259;-41
2023/11/04 22:59:29;;;;;;;69.60;34.30;;;;;;;4.05;84.21;96050.45;435283;1250;99301;-40
2023/11/04 23:09:33;;;;;;;53.50;28.70;;;;;;;4.12;84.52;96040.61;435332;1253;107414;-41
2023/11/04 23:19:36;;;;;;;46.80;25.40;;;;;;;4.29;84.55;96054.11;435385;1264;99275;-41
2023/11/04 23:29:40;;;;;;;42.90;21.50;;;;;;;4.43;84.64;96055.70;435245;1254;110874;-40
2023/11/04 23:49:46;;;;;;;43.20;25.20;;;;;;;4.50;84.96;96003.84;435383;1251;99221;-39
2023/11/04 23:59:50;;;;;;;34.60;20.00;;;;;;;4.58;85.12;95979.65;435158;1249;107454;-40
